Knoxville, TN (37902)

10:41 AM EST on March 02, 2015 (GMT -0500)
South Hills | Change Station
CLOSE
Current Station
Personal Weather Station
Location: Knoxville, TN
Elevation: 938 ft
Nearby Weather Stations

Elev 938 ft 35.93 °N, 83.93 °W | Updated 7 seconds ago

Overcast
Overcast
40.8 °F
Feels Like 41 °F
N
0.0
Wind Variable Wind from East
Gusts 0.0 mph

Today
High -- | Low -- °F
--% Chance of Precip.
Yesterday
High -- | Low -- °F
Precip. -- in
7:04 AM 6:31 PM
Waxing Gibbous, 92% visible
Pressure 30.42 in
Visibility 6.0 miles
Clouds Few 500 ft
Mostly Cloudy 1300 ft
Overcast 2500 ft
Windchill 41 °F
Dew Point 34 °F
Humidity 77%
Rainfall 0.17 in
Snow Depth Not available.
UV 2.0 out of 12
Pollen 1.80 out of 12
Air Quality Not available.
Flu Activity Not available.
METAR KTYS 021453Z 03010KT 6SM BR FEW005 BKN013 OVC025 04/02 A3042

More Conditions Fewer Conditions

Pressure 30.42 in
Visibility 6.0 miles
Clouds Few 500 ft
Mostly Cloudy 1300 ft
Overcast 2500 ft
Windchill 41 °F
Dew Point 34 °F
Humidity 77%
Rainfall 0.17 in
Snow Depth Not available.
UV 2.0 out of 12
Pollen 1.80 out of 12
Air Quality Not available.
Flu Activity Not available.
METAR KTYS 021453Z 03010KT 6SM BR FEW005 BKN013 OVC025 04/02 A3042

More Conditions Fewer Conditions

10-Day Weather Forecast

Almanac

Astronomy

Mar. 02, 2015 Rise Set
Actual Time
Civil Twilight
Nautical Twilight
Astronomical Twilight
Moon
Length of Visible Light
Length of Day
Tomorrow will be .
, % of the Moon is Illuminated

Today's Extremes

State Highs State Lows

Community

WunderPhotos

Upload Photos

1,801,823 photos uploaded!

WunderBlogs® & News

Nearby

Air Quality

  Air Quality AQ Index Pollutant
Not available.

Snow Depth

Station Depth Elevation

Earthquake Activity

City Distance Mag. Time & Date
Minimum magnitude displayed is 2.5.

Coastal Water Temperatures

Place Temperature

Nearby Weather Stations